sensor_id;sensor_type;location;lat;lon;timestamp;P1;durP1;ratioP1;P2;durP2;ratioP2
53293;SDS011;39181;53.440;5.644;2022-12-10T00:02:10;113.65;;;24.13;;
53293;SDS011;39181;53.440;5.644;2022-12-10T00:04:36;207.93;;;25.60;;
53293;SDS011;39181;53.440;5.644;2022-12-10T00:07:02;130.00;;;25.13;;
53293;SDS011;39181;53.440;5.644;2022-12-10T00:09:27;183.65;;;24.00;;
53293;SDS011;39181;53.440;5.644;2022-12-10T00:11:53;153.07;;;26.90;;
53293;SDS011;39181;53.440;5.644;2022-12-10T00:14:18;187.80;;;27.65;;
53293;SDS011;39181;53.440;5.644;2022-12-10T00:16:44;153.88;;;23.10;;
53293;SDS011;39181;53.440;5.644;2022-12-10T00:19:09;147.35;;;26.27;;
53293;SDS011;39181;53.440;5.644;2022-12-10T00:21:36;140.00;;;27.88;;
53293;SDS011;39181;53.440;5.644;2022-12-10T00:24:02;165.18;;;27.00;;
53293;SDS011;39181;53.440;5.644;2022-12-10T00:26:35;122.85;;;21.83;;
53293;SDS011;39181;53.440;5.644;2022-12-10T00:29:02;137.77;;;24.23;;
53293;SDS011;39181;53.440;5.644;2022-12-10T00:31:30;131.43;;;25.42;;
53293;SDS011;39181;53.440;5.644;2022-12-10T00:33:58;139.90;;;25.35;;
53293;SDS011;39181;53.440;5.644;2022-12-10T00:36:26;149.00;;;27.08;;
53293;SDS011;39181;53.440;5.644;2022-12-10T00:38:54;137.90;;;25.38;;
53293;SDS011;39181;53.440;5.644;2022-12-10T00:41:19;145.40;;;24.98;;
53293;SDS011;39181;53.440;5.644;2022-12-10T00:43:46;156.18;;;25.45;;
53293;SDS011;39181;53.440;5.644;2022-12-10T00:46:12;169.35;;;25.95;;
53293;SDS011;39181;53.440;5.644;2022-12-10T00:48:39;136.02;;;25.35;;
53293;SDS011;39181;53.440;5.644;2022-12-10T00:51:06;205.93;;;28.20;;
53293;SDS011;39181;53.440;5.644;2022-12-10T00:53:36;171.50;;;26.42;;
53293;SDS011;39181;53.440;5.644;2022-12-10T00:56:03;265.63;;;28.73;;
53293;SDS011;39181;53.440;5.644;2022-12-10T00:58:30;187.90;;;26.88;;
53293;SDS011;39181;53.440;5.644;2022-12-10T01:01:13;203.55;;;25.88;;
53293;SDS011;39181;53.440;5.644;2022-12-10T01:03:43;271.33;;;26.60;;
53293;SDS011;39181;53.440;5.644;2022-12-10T01:06:10;206.48;;;25.98;;
53293;SDS011;39181;53.440;5.644;2022-12-10T01:08:40;203.80;;;26.83;;
53293;SDS011;39181;53.440;5.644;2022-12-10T01:11:07;225.27;;;26.83;;
53293;SDS011;39181;53.440;5.644;2022-12-10T01:13:34;206.25;;;26.23;;
53293;SDS011;39181;53.440;5.644;2022-12-10T01:16:01;234.13;;;27.27;;
53293;SDS011;39181;53.440;5.644;2022-12-10T01:18:28;196.93;;;26.80;;
53293;SDS011;39181;53.440;5.644;2022-12-10T01:20:53;141.75;;;27.38;;
53293;SDS011;39181;53.440;5.644;2022-12-10T01:23:19;115.95;;;26.15;;
53293;SDS011;39181;53.440;5.644;2022-12-10T01:25:45;181.98;;;26.52;;
53293;SDS011;39181;53.440;5.644;2022-12-10T01:28:11;130.73;;;30.17;;
53293;SDS011;39181;53.440;5.644;2022-12-10T01:30:36;141.20;;;29.63;;
53293;SDS011;39181;53.440;5.644;2022-12-10T01:33:02;137.10;;;30.15;;
53293;SDS011;39181;53.440;5.644;2022-12-10T01:35:27;105.88;;;30.27;;
53293;SDS011;39181;53.440;5.644;2022-12-10T01:37:53;113.18;;;30.77;;
53293;SDS011;39181;53.440;5.644;2022-12-10T01:40:19;117.47;;;30.20;;
53293;SDS011;39181;53.440;5.644;2022-12-10T01:42:44;94.35;;;27.05;;
53293;SDS011;39181;53.440;5.644;2022-12-10T01:45:11;126.18;;;30.80;;
53293;SDS011;39181;53.440;5.644;2022-12-10T01:47:37;94.85;;;28.85;;
53293;SDS011;39181;53.440;5.644;2022-12-10T01:50:03;107.60;;;28.67;;
53293;SDS011;39181;53.440;5.644;2022-12-10T01:52:33;107.13;;;29.77;;
53293;SDS011;39181;53.440;5.644;2022-12-10T01:54:59;98.30;;;29.83;;
53293;SDS011;39181;53.440;5.644;2022-12-10T01:57:26;109.10;;;28.90;;
53293;SDS011;39181;53.440;5.644;2022-12-10T02:00:00;105.15;;;29.42;;
53293;SDS011;39181;53.440;5.644;2022-12-10T02:02:42;99.50;;;30.25;;
53293;SDS011;39181;53.440;5.644;2022-12-10T02:05:42;110.20;;;32.10;;
53293;SDS011;39181;53.440;5.644;2022-12-10T02:08:19;139.50;;;31.70;;
53293;SDS011;39181;53.440;5.644;2022-12-10T02:13:27;114.87;;;27.67;;
53293;SDS011;39181;53.440;5.644;2022-12-10T02:16:08;105.32;;;27.10;;
53293;SDS011;39181;53.440;5.644;2022-12-10T02:18:46;90.97;;;27.40;;
53293;SDS011;39181;53.440;5.644;2022-12-10T02:21:22;98.38;;;30.23;;
53293;SDS011;39181;53.440;5.644;2022-12-10T02:23:57;103.38;;;30.30;;
53293;SDS011;39181;53.440;5.644;2022-12-10T02:29:32;81.00;;;28.38;;
53293;SDS011;39181;53.440;5.644;2022-12-10T02:32:07;83.38;;;29.58;;
53293;SDS011;39181;53.440;5.644;2022-12-10T02:34:38;87.80;;;31.20;;
53293;SDS011;39181;53.440;5.644;2022-12-10T02:37:10;83.28;;;31.33;;
53293;SDS011;39181;53.440;5.644;2022-12-10T02:39:59;86.80;;;28.38;;
53293;SDS011;39181;53.440;5.644;2022-12-10T02:42:30;86.25;;;30.55;;
53293;SDS011;39181;53.440;5.644;2022-12-10T02:44:58;93.25;;;31.30;;
53293;SDS011;39181;53.440;5.644;2022-12-10T02:47:25;90.85;;;30.77;;
53293;SDS011;39181;53.440;5.644;2022-12-10T02:49:52;92.82;;;29.48;;
53293;SDS011;39181;53.440;5.644;2022-12-10T02:52:22;88.10;;;28.75;;
53293;SDS011;39181;53.440;5.644;2022-12-10T02:54:49;81.88;;;30.73;;
53293;SDS011;39181;53.440;5.644;2022-12-10T03:00:20;91.15;;;31.42;;
53293;SDS011;39181;53.440;5.644;2022-12-10T03:13:43;105.93;;;31.10;;
53293;SDS011;39181;53.440;5.644;2022-12-10T03:16:23;117.25;;;30.52;;
53293;SDS011;39181;53.440;5.644;2022-12-10T03:18:52;124.47;;;28.58;;
53293;SDS011;39181;53.440;5.644;2022-12-10T03:21:22;154.60;;;34.20;;
53293;SDS011;39181;53.440;5.644;2022-12-10T03:23:49;212.05;;;32.78;;
53293;SDS011;39181;53.440;5.644;2022-12-10T03:26:16;222.60;;;31.05;;
53293;SDS011;39181;53.440;5.644;2022-12-10T03:28:46;182.15;;;29.80;;
53293;SDS011;39181;53.440;5.644;2022-12-10T03:31:19;309.13;;;32.33;;
53293;SDS011;39181;53.440;5.644;2022-12-10T03:33:46;355.27;;;29.83;;
53293;SDS011;39181;53.440;5.644;2022-12-10T03:36:13;351.27;;;30.55;;
53293;SDS011;39181;53.440;5.644;2022-12-10T03:38:40;421.05;;;31.48;;
53293;SDS011;39181;53.440;5.644;2022-12-10T03:41:07;402.83;;;30.42;;
53293;SDS011;39181;53.440;5.644;2022-12-10T03:43:33;395.25;;;30.00;;
53293;SDS011;39181;53.440;5.644;2022-12-10T03:45:58;430.90;;;29.42;;
53293;SDS011;39181;53.440;5.644;2022-12-10T03:48:24;388.52;;;29.55;;
53293;SDS011;39181;53.440;5.644;2022-12-10T03:50:49;434.13;;;27.25;;
53293;SDS011;39181;53.440;5.644;2022-12-10T03:53:15;397.23;;;26.83;;
53293;SDS011;39181;53.440;5.644;2022-12-10T03:55:41;472.80;;;28.65;;
53293;SDS011;39181;53.440;5.644;2022-12-10T03:58:06;332.15;;;24.27;;
53293;SDS011;39181;53.440;5.644;2022-12-10T04:00:32;376.40;;;25.73;;
53293;SDS011;39181;53.440;5.644;2022-12-10T04:02:58;378.65;;;23.38;;
53293;SDS011;39181;53.440;5.644;2022-12-10T04:05:23;494.05;;;28.83;;
53293;SDS011;39181;53.440;5.644;2022-12-10T04:07:49;366.65;;;24.13;;
53293;SDS011;39181;53.440;5.644;2022-12-10T04:10:14;258.45;;;22.42;;
53293;SDS011;39181;53.440;5.644;2022-12-10T04:12:40;281.98;;;21.52;;
53293;SDS011;39181;53.440;5.644;2022-12-10T04:15:05;275.95;;;20.70;;
53293;SDS011;39181;53.440;5.644;2022-12-10T04:17:50;348.55;;;21.73;;
53293;SDS011;39181;53.440;5.644;2022-12-10T04:20:17;293.10;;;21.27;;
53293;SDS011;39181;53.440;5.644;2022-12-10T04:23:01;229.27;;;19.17;;
53293;SDS011;39181;53.440;5.644;2022-12-10T04:25:46;321.75;;;20.30;;
53293;SDS011;39181;53.440;5.644;2022-12-10T04:28:30;295.05;;;19.58;;
53293;SDS011;39181;53.440;5.644;2022-12-10T04:30:55;296.63;;;18.70;;
53293;SDS011;39181;53.440;5.644;2022-12-10T04:33:21;253.20;;;19.52;;
53293;SDS011;39181;53.440;5.644;2022-12-10T04:35:47;307.02;;;21.45;;
53293;SDS011;39181;53.440;5.644;2022-12-10T04:38:12;230.93;;;20.33;;
53293;SDS011;39181;53.440;5.644;2022-12-10T04:40:38;273.10;;;19.75;;
53293;SDS011;39181;53.440;5.644;2022-12-10T04:43:04;301.73;;;19.48;;
53293;SDS011;39181;53.440;5.644;2022-12-10T04:45:29;205.82;;;18.48;;
53293;SDS011;39181;53.440;5.644;2022-12-10T04:47:55;249.07;;;18.95;;
53293;SDS011;39181;53.440;5.644;2022-12-10T04:50:20;261.63;;;17.58;;
53293;SDS011;39181;53.440;5.644;2022-12-10T04:52:46;235.32;;;17.27;;
53293;SDS011;39181;53.440;5.644;2022-12-10T04:55:12;205.18;;;17.30;;
53293;SDS011;39181;53.440;5.644;2022-12-10T04:57:37;231.07;;;17.17;;
53293;SDS011;39181;53.440;5.644;2022-12-10T05:00:03;282.80;;;19.98;;
53293;SDS011;39181;53.440;5.644;2022-12-10T05:02:29;251.45;;;18.58;;
53293;SDS011;39181;53.440;5.644;2022-12-10T05:04:54;259.80;;;17.45;;
53293;SDS011;39181;53.440;5.644;2022-12-10T05:07:20;265.63;;;18.33;;
53293;SDS011;39181;53.440;5.644;2022-12-10T05:09:45;289.23;;;17.85;;
53293;SDS011;39181;53.440;5.644;2022-12-10T05:12:11;276.63;;;17.30;;
53293;SDS011;39181;53.440;5.644;2022-12-10T05:14:36;223.57;;;16.67;;
53293;SDS011;39181;53.440;5.644;2022-12-10T05:17:02;222.73;;;15.75;;
53293;SDS011;39181;53.440;5.644;2022-12-10T05:19:28;204.60;;;16.08;;
53293;SDS011;39181;53.440;5.644;2022-12-10T05:21:53;274.55;;;17.88;;
53293;SDS011;39181;53.440;5.644;2022-12-10T05:24:38;228.07;;;16.08;;
53293;SDS011;39181;53.440;5.644;2022-12-10T05:27:04;326.00;;;18.42;;
53293;SDS011;39181;53.440;5.644;2022-12-10T05:29:32;289.98;;;18.83;;
53293;SDS011;39181;53.440;5.644;2022-12-10T05:31:58;215.68;;;15.93;;
53293;SDS011;39181;53.440;5.644;2022-12-10T05:34:23;248.77;;;16.73;;
53293;SDS011;39181;53.440;5.644;2022-12-10T05:36:49;208.90;;;16.45;;
53293;SDS011;39181;53.440;5.644;2022-12-10T05:39:14;188.77;;;16.42;;
53293;SDS011;39181;53.440;5.644;2022-12-10T05:41:40;234.95;;;16.55;;
53293;SDS011;39181;53.440;5.644;2022-12-10T05:44:06;177.57;;;14.27;;
53293;SDS011;39181;53.440;5.644;2022-12-10T05:46:33;228.55;;;14.77;;
53293;SDS011;39181;53.440;5.644;2022-12-10T05:49:00;144.82;;;13.77;;
53293;SDS011;39181;53.440;5.644;2022-12-10T05:51:28;226.80;;;15.32;;
53293;SDS011;39181;53.440;5.644;2022-12-10T05:53:56;220.23;;;14.93;;
53293;SDS011;39181;53.440;5.644;2022-12-10T05:56:24;160.98;;;13.65;;
53293;SDS011;39181;53.440;5.644;2022-12-10T05:58:51;181.00;;;12.73;;
53293;SDS011;39181;53.440;5.644;2022-12-10T06:01:21;195.07;;;14.38;;
53293;SDS011;39181;53.440;5.644;2022-12-10T06:03:48;174.27;;;14.18;;
53293;SDS011;39181;53.440;5.644;2022-12-10T06:06:21;219.30;;;14.35;;
53293;SDS011;39181;53.440;5.644;2022-12-10T06:08:48;173.30;;;13.73;;
53293;SDS011;39181;53.440;5.644;2022-12-10T06:11:14;187.65;;;15.15;;
53293;SDS011;39181;53.440;5.644;2022-12-10T06:13:40;210.75;;;13.20;;
53293;SDS011;39181;53.440;5.644;2022-12-10T06:16:06;148.57;;;14.20;;
53293;SDS011;39181;53.440;5.644;2022-12-10T06:18:34;187.95;;;14.65;;
53293;SDS011;39181;53.440;5.644;2022-12-10T06:21:07;156.63;;;14.63;;
53293;SDS011;39181;53.440;5.644;2022-12-10T06:23:35;136.32;;;13.13;;
53293;SDS011;39181;53.440;5.644;2022-12-10T06:26:04;220.95;;;14.20;;
53293;SDS011;39181;53.440;5.644;2022-12-10T06:28:31;191.35;;;13.95;;
53293;SDS011;39181;53.440;5.644;2022-12-10T06:30:58;183.82;;;15.43;;
53293;SDS011;39181;53.440;5.644;2022-12-10T06:33:24;237.27;;;14.75;;
53293;SDS011;39181;53.440;5.644;2022-12-10T06:35:50;126.03;;;13.35;;
53293;SDS011;39181;53.440;5.644;2022-12-10T06:38:15;147.68;;;13.73;;
53293;SDS011;39181;53.440;5.644;2022-12-10T06:40:41;159.93;;;14.20;;
53293;SDS011;39181;53.440;5.644;2022-12-10T06:43:06;105.45;;;13.55;;
53293;SDS011;39181;53.440;5.644;2022-12-10T06:45:32;167.13;;;14.30;;
53293;SDS011;39181;53.440;5.644;2022-12-10T06:47:57;173.70;;;14.50;;
53293;SDS011;39181;53.440;5.644;2022-12-10T06:50:23;137.27;;;13.85;;
53293;SDS011;39181;53.440;5.644;2022-12-10T06:52:49;169.35;;;14.60;;
53293;SDS011;39181;53.440;5.644;2022-12-10T06:55:16;158.68;;;13.90;;
53293;SDS011;39181;53.440;5.644;2022-12-10T06:57:41;170.57;;;14.55;;
53293;SDS011;39181;53.440;5.644;2022-12-10T07:00:07;195.63;;;14.90;;
53293;SDS011;39181;53.440;5.644;2022-12-10T07:02:33;134.02;;;14.13;;
53293;SDS011;39181;53.440;5.644;2022-12-10T07:04:59;185.07;;;13.93;;
53293;SDS011;39181;53.440;5.644;2022-12-10T07:07:25;165.00;;;13.70;;
53293;SDS011;39181;53.440;5.644;2022-12-10T07:09:50;123.35;;;13.13;;
53293;SDS011;39181;53.440;5.644;2022-12-10T07:12:16;129.55;;;13.77;;
53293;SDS011;39181;53.440;5.644;2022-12-10T07:14:41;109.18;;;13.75;;
53293;SDS011;39181;53.440;5.644;2022-12-10T07:17:07;152.40;;;14.80;;
53293;SDS011;39181;53.440;5.644;2022-12-10T07:19:33;163.65;;;12.68;;
53293;SDS011;39181;53.440;5.644;2022-12-10T07:21:58;168.07;;;13.43;;
53293;SDS011;39181;53.440;5.644;2022-12-10T07:24:24;180.18;;;14.60;;
53293;SDS011;39181;53.440;5.644;2022-12-10T07:26:50;98.93;;;11.52;;
53293;SDS011;39181;53.440;5.644;2022-12-10T07:29:17;166.55;;;13.55;;
53293;SDS011;39181;53.440;5.644;2022-12-10T07:31:45;180.05;;;13.00;;
53293;SDS011;39181;53.440;5.644;2022-12-10T07:34:12;170.88;;;14.45;;
53293;SDS011;39181;53.440;5.644;2022-12-10T07:36:37;124.85;;;14.07;;
53293;SDS011;39181;53.440;5.644;2022-12-10T07:39:06;166.50;;;13.70;;
53293;SDS011;39181;53.440;5.644;2022-12-10T07:41:34;231.50;;;14.82;;
53293;SDS011;39181;53.440;5.644;2022-12-10T07:44:01;160.13;;;13.57;;
53293;SDS011;39181;53.440;5.644;2022-12-10T07:46:28;181.43;;;15.50;;
53293;SDS011;39181;53.440;5.644;2022-12-10T07:48:55;195.00;;;15.52;;
53293;SDS011;39181;53.440;5.644;2022-12-10T07:51:21;128.63;;;15.27;;
53293;SDS011;39181;53.440;5.644;2022-12-10T07:53:48;209.13;;;16.48;;
53293;SDS011;39181;53.440;5.644;2022-12-10T07:56:16;167.45;;;15.65;;
53293;SDS011;39181;53.440;5.644;2022-12-10T07:58:42;183.55;;;15.95;;
53293;SDS011;39181;53.440;5.644;2022-12-10T08:01:10;230.65;;;15.55;;
53293;SDS011;39181;53.440;5.644;2022-12-10T08:03:38;158.70;;;15.35;;
53293;SDS011;39181;53.440;5.644;2022-12-10T08:06:05;150.52;;;13.90;;
53293;SDS011;39181;53.440;5.644;2022-12-10T08:08:33;200.05;;;15.85;;
53293;SDS011;39181;53.440;5.644;2022-12-10T08:11:00;212.38;;;15.77;;
53293;SDS011;39181;53.440;5.644;2022-12-10T08:13:26;129.18;;;13.10;;
53293;SDS011;39181;53.440;5.644;2022-12-10T08:15:52;147.73;;;13.85;;
53293;SDS011;39181;53.440;5.644;2022-12-10T08:18:18;153.85;;;14.45;;
53293;SDS011;39181;53.440;5.644;2022-12-10T08:20:43;217.25;;;16.23;;
53293;SDS011;39181;53.440;5.644;2022-12-10T08:23:09;130.75;;;13.88;;
53293;SDS011;39181;53.440;5.644;2022-12-10T08:25:35;129.13;;;14.55;;
53293;SDS011;39181;53.440;5.644;2022-12-10T08:28:01;141.27;;;14.70;;
53293;SDS011;39181;53.440;5.644;2022-12-10T08:30:28;161.50;;;15.07;;
53293;SDS011;39181;53.440;5.644;2022-12-10T08:32:54;159.55;;;15.30;;
53293;SDS011;39181;53.440;5.644;2022-12-10T08:35:20;124.80;;;13.43;;
53293;SDS011;39181;53.440;5.644;2022-12-10T08:37:45;157.45;;;13.77;;
53293;SDS011;39181;53.440;5.644;2022-12-10T08:40:11;135.27;;;13.80;;
53293;SDS011;39181;53.440;5.644;2022-12-10T08:42:37;165.43;;;15.45;;
53293;SDS011;39181;53.440;5.644;2022-12-10T08:45:03;189.82;;;14.25;;
53293;SDS011;39181;53.440;5.644;2022-12-10T08:47:29;132.00;;;15.32;;
53293;SDS011;39181;53.440;5.644;2022-12-10T08:49:55;176.32;;;15.20;;
53293;SDS011;39181;53.440;5.644;2022-12-10T08:52:21;185.60;;;16.20;;
53293;SDS011;39181;53.440;5.644;2022-12-10T08:54:46;154.02;;;15.75;;
53293;SDS011;39181;53.440;5.644;2022-12-10T08:57:12;96.10;;;14.55;;
53293;SDS011;39181;53.440;5.644;2022-12-10T08:59:37;137.93;;;14.30;;
53293;SDS011;39181;53.440;5.644;2022-12-10T09:02:03;123.15;;;14.80;;
53293;SDS011;39181;53.440;5.644;2022-12-10T09:04:28;163.52;;;15.43;;
53293;SDS011;39181;53.440;5.644;2022-12-10T09:06:54;116.53;;;13.50;;
53293;SDS011;39181;53.440;5.644;2022-12-10T09:09:19;161.02;;;14.07;;
53293;SDS011;39181;53.440;5.644;2022-12-10T09:11:45;119.28;;;14.35;;
53293;SDS011;39181;53.440;5.644;2022-12-10T09:14:11;115.50;;;15.18;;
53293;SDS011;39181;53.440;5.644;2022-12-10T09:16:37;133.38;;;16.27;;
53293;SDS011;39181;53.440;5.644;2022-12-10T09:19:04;116.32;;;15.30;;
53293;SDS011;39181;53.440;5.644;2022-12-10T09:21:30;99.80;;;15.00;;
53293;SDS011;39181;53.440;5.644;2022-12-10T09:23:57;94.28;;;14.30;;
53293;SDS011;39181;53.440;5.644;2022-12-10T09:26:23;162.40;;;15.32;;
53293;SDS011;39181;53.440;5.644;2022-12-10T09:28:50;125.30;;;15.77;;
53293;SDS011;39181;53.440;5.644;2022-12-10T09:31:16;89.82;;;14.57;;
53293;SDS011;39181;53.440;5.644;2022-12-10T09:33:44;77.18;;;13.70;;
53293;SDS011;39181;53.440;5.644;2022-12-10T09:36:11;70.82;;;13.45;;
53293;SDS011;39181;53.440;5.644;2022-12-10T09:38:38;81.30;;;14.60;;
53293;SDS011;39181;53.440;5.644;2022-12-10T09:41:17;72.60;;;14.02;;
53293;SDS011;39181;53.440;5.644;2022-12-10T09:43:47;84.68;;;15.38;;
53293;SDS011;39181;53.440;5.644;2022-12-10T09:48:57;103.20;;;14.90;;
53293;SDS011;39181;53.440;5.644;2022-12-10T09:51:29;105.75;;;14.48;;
53293;SDS011;39181;53.440;5.644;2022-12-10T09:53:57;91.07;;;15.50;;
53293;SDS011;39181;53.440;5.644;2022-12-10T09:56:26;100.85;;;13.95;;
53293;SDS011;39181;53.440;5.644;2022-12-10T09:59:38;90.88;;;14.30;;
53293;SDS011;39181;53.440;5.644;2022-12-10T10:02:22;85.25;;;14.77;;
53293;SDS011;39181;53.440;5.644;2022-12-10T10:04:51;99.40;;;15.27;;
53293;SDS011;39181;53.440;5.644;2022-12-10T10:07:26;99.78;;;15.10;;
53293;SDS011;39181;53.440;5.644;2022-12-10T10:10:04;99.32;;;16.33;;
53293;SDS011;39181;53.440;5.644;2022-12-10T10:12:33;101.10;;;16.52;;
53293;SDS011;39181;53.440;5.644;2022-12-10T10:14:59;89.85;;;14.70;;
53293;SDS011;39181;53.440;5.644;2022-12-10T10:17:37;106.30;;;15.30;;
53293;SDS011;39181;53.440;5.644;2022-12-10T10:20:03;96.40;;;14.60;;
53293;SDS011;39181;53.440;5.644;2022-12-10T10:22:30;104.80;;;15.75;;
53293;SDS011;39181;53.440;5.644;2022-12-10T10:24:56;82.10;;;15.07;;
53293;SDS011;39181;53.440;5.644;2022-12-10T10:29:52;67.10;;;14.30;;
53293;SDS011;39181;53.440;5.644;2022-12-10T10:32:20;88.43;;;16.00;;
53293;SDS011;39181;53.440;5.644;2022-12-10T10:34:54;85.40;;;15.15;;
53293;SDS011;39181;53.440;5.644;2022-12-10T10:37:26;71.30;;;15.15;;
53293;SDS011;39181;53.440;5.644;2022-12-10T10:42:37;69.25;;;15.98;;
53293;SDS011;39181;53.440;5.644;2022-12-10T10:45:06;61.05;;;15.32;;
53293;SDS011;39181;53.440;5.644;2022-12-10T10:48:12;60.03;;;16.85;;
53293;SDS011;39181;53.440;5.644;2022-12-10T10:50:50;61.75;;;15.38;;
53293;SDS011;39181;53.440;5.644;2022-12-10T10:53:21;85.55;;;18.70;;
53293;SDS011;39181;53.440;5.644;2022-12-10T10:55:49;78.32;;;16.50;;
53293;SDS011;39181;53.440;5.644;2022-12-10T10:58:19;53.63;;;15.77;;
53293;SDS011;39181;53.440;5.644;2022-12-10T11:00:58;52.47;;;14.38;;
53293;SDS011;39181;53.440;5.644;2022-12-10T11:03:25;50.78;;;14.77;;
53293;SDS011;39181;53.440;5.644;2022-12-10T11:05:53;43.08;;;15.32;;
53293;SDS011;39181;53.440;5.644;2022-12-10T11:08:20;53.25;;;16.20;;
53293;SDS011;39181;53.440;5.644;2022-12-10T11:10:55;59.95;;;16.73;;
53293;SDS011;39181;53.440;5.644;2022-12-10T11:13:27;47.67;;;17.10;;
53293;SDS011;39181;53.440;5.644;2022-12-10T11:15:59;54.33;;;16.90;;
53293;SDS011;39181;53.440;5.644;2022-12-10T11:19:02;57.15;;;18.08;;
53293;SDS011;39181;53.440;5.644;2022-12-10T11:21:30;82.20;;;19.63;;
53293;SDS011;39181;53.440;5.644;2022-12-10T11:23:58;93.97;;;20.58;;
53293;SDS011;39181;53.440;5.644;2022-12-10T11:38:27;69.22;;;19.27;;
53293;SDS011;39181;53.440;5.644;2022-12-10T11:43:53;53.40;;;18.05;;
53293;SDS011;39181;53.440;5.644;2022-12-10T11:55:13;55.80;;;19.52;;
53293;SDS011;39181;53.440;5.644;2022-12-10T11:57:48;68.82;;;19.27;;
53293;SDS011;39181;53.440;5.644;2022-12-10T12:03:05;74.15;;;18.42;;
53293;SDS011;39181;53.440;5.644;2022-12-10T12:14:26;85.07;;;19.30;;
53293;SDS011;39181;53.440;5.644;2022-12-10T12:17:02;50.88;;;18.15;;
53293;SDS011;39181;53.440;5.644;2022-12-10T12:19:37;50.55;;;17.77;;
53293;SDS011;39181;53.440;5.644;2022-12-10T12:22:29;52.58;;;16.92;;
53293;SDS011;39181;53.440;5.644;2022-12-10T12:24:59;55.63;;;18.63;;
53293;SDS011;39181;53.440;5.644;2022-12-10T12:27:43;55.47;;;18.60;;
53293;SDS011;39181;53.440;5.644;2022-12-10T12:30:16;46.75;;;19.08;;
53293;SDS011;39181;53.440;5.644;2022-12-10T12:46:44;47.83;;;18.52;;
53293;SDS011;39181;53.440;5.644;2022-12-10T12:49:28;59.28;;;20.52;;
53293;SDS011;39181;53.440;5.644;2022-12-10T12:54:55;49.95;;;16.77;;
53293;SDS011;39181;53.440;5.644;2022-12-10T13:00:12;41.40;;;15.27;;
53293;SDS011;39181;53.440;5.644;2022-12-10T13:03:00;39.13;;;14.88;;
53293;SDS011;39181;53.440;5.644;2022-12-10T13:05:41;34.08;;;15.18;;
53293;SDS011;39181;53.440;5.644;2022-12-10T13:16:33;30.15;;;12.85;;
53293;SDS011;39181;53.440;5.644;2022-12-10T13:35:21;34.92;;;14.85;;
53293;SDS011;39181;53.440;5.644;2022-12-10T13:37:57;41.15;;;14.68;;
53293;SDS011;39181;53.440;5.644;2022-12-10T13:40:43;34.58;;;15.98;;
53293;SDS011;39181;53.440;5.644;2022-12-10T13:43:39;35.72;;;14.95;;
53293;SDS011;39181;53.440;5.644;2022-12-10T13:46:34;34.70;;;15.63;;
53293;SDS011;39181;53.440;5.644;2022-12-10T13:49:20;26.63;;;13.13;;
53293;SDS011;39181;53.440;5.644;2022-12-10T13:51:57;30.52;;;12.35;;
53293;SDS011;39181;53.440;5.644;2022-12-10T14:00:08;33.00;;;13.60;;
53293;SDS011;39181;53.440;5.644;2022-12-10T14:02:42;35.47;;;14.50;;
53293;SDS011;39181;53.440;5.644;2022-12-10T14:08:08;37.70;;;15.40;;
53293;SDS011;39181;53.440;5.644;2022-12-10T14:10:38;34.33;;;14.95;;
53293;SDS011;39181;53.440;5.644;2022-12-10T14:13:06;33.38;;;14.20;;
53293;SDS011;39181;53.440;5.644;2022-12-10T14:15:34;29.95;;;13.88;;
53293;SDS011;39181;53.440;5.644;2022-12-10T14:18:14;35.55;;;15.45;;
53293;SDS011;39181;53.440;5.644;2022-12-10T14:20:45;40.25;;;15.45;;
53293;SDS011;39181;53.440;5.644;2022-12-10T14:23:23;38.10;;;14.85;;
53293;SDS011;39181;53.440;5.644;2022-12-10T14:26:03;42.65;;;16.88;;
53293;SDS011;39181;53.440;5.644;2022-12-10T14:28:40;45.50;;;17.95;;
53293;SDS011;39181;53.440;5.644;2022-12-10T14:31:10;42.40;;;17.42;;
53293;SDS011;39181;53.440;5.644;2022-12-10T14:33:39;45.55;;;16.13;;
53293;SDS011;39181;53.440;5.644;2022-12-10T14:36:05;42.15;;;17.58;;
53293;SDS011;39181;53.440;5.644;2022-12-10T14:38:32;46.50;;;17.27;;
53293;SDS011;39181;53.440;5.644;2022-12-10T14:40:59;38.95;;;16.13;;
53293;SDS011;39181;53.440;5.644;2022-12-10T14:43:32;40.17;;;15.18;;
53293;SDS011;39181;53.440;5.644;2022-12-10T14:46:02;41.65;;;16.88;;
53293;SDS011;39181;53.440;5.644;2022-12-10T14:48:29;50.65;;;17.17;;
53293;SDS011;39181;53.440;5.644;2022-12-10T14:50:56;50.03;;;16.52;;
53293;SDS011;39181;53.440;5.644;2022-12-10T14:53:28;42.70;;;17.38;;
53293;SDS011;39181;53.440;5.644;2022-12-10T14:55:55;45.67;;;17.00;;
53293;SDS011;39181;53.440;5.644;2022-12-10T14:58:33;38.75;;;16.63;;
53293;SDS011;39181;53.440;5.644;2022-12-10T15:03:54;33.03;;;14.23;;
53293;SDS011;39181;53.440;5.644;2022-12-10T15:06:24;31.48;;;13.88;;
53293;SDS011;39181;53.440;5.644;2022-12-10T15:08:49;32.80;;;13.98;;
53293;SDS011;39181;53.440;5.644;2022-12-10T15:11:20;34.05;;;13.98;;
53293;SDS011;39181;53.440;5.644;2022-12-10T15:13:47;36.50;;;13.38;;
53293;SDS011;39181;53.440;5.644;2022-12-10T15:16:20;40.03;;;15.25;;
53293;SDS011;39181;53.440;5.644;2022-12-10T15:18:53;46.03;;;16.10;;
53293;SDS011;39181;53.440;5.644;2022-12-10T15:21:20;36.60;;;14.40;;
53293;SDS011;39181;53.440;5.644;2022-12-10T15:23:48;38.80;;;14.90;;
53293;SDS011;39181;53.440;5.644;2022-12-10T15:28:49;36.65;;;14.13;;
53293;SDS011;39181;53.440;5.644;2022-12-10T15:33:58;37.38;;;13.48;;
53293;SDS011;39181;53.440;5.644;2022-12-10T15:39:05;37.72;;;14.57;;
53293;SDS011;39181;53.440;5.644;2022-12-10T15:42:07;32.55;;;14.65;;
53293;SDS011;39181;53.440;5.644;2022-12-10T15:44:36;38.83;;;14.48;;
53293;SDS011;39181;53.440;5.644;2022-12-10T15:47:25;42.25;;;16.15;;
53293;SDS011;39181;53.440;5.644;2022-12-10T15:49:52;36.75;;;14.82;;
53293;SDS011;39181;53.440;5.644;2022-12-10T15:52:23;36.45;;;15.10;;
53293;SDS011;39181;53.440;5.644;2022-12-10T15:54:52;46.63;;;16.90;;
53293;SDS011;39181;53.440;5.644;2022-12-10T15:57:19;48.78;;;16.80;;
53293;SDS011;39181;53.440;5.644;2022-12-10T15:59:59;40.65;;;15.65;;
53293;SDS011;39181;53.440;5.644;2022-12-10T16:05:16;37.20;;;14.50;;
53293;SDS011;39181;53.440;5.644;2022-12-10T16:07:58;36.88;;;14.88;;
53293;SDS011;39181;53.440;5.644;2022-12-10T16:10:26;45.55;;;16.80;;
53293;SDS011;39181;53.440;5.644;2022-12-10T16:12:57;38.83;;;16.27;;
53293;SDS011;39181;53.440;5.644;2022-12-10T16:15:25;39.85;;;15.85;;
53293;SDS011;39181;53.440;5.644;2022-12-10T16:17:53;43.35;;;16.05;;
53293;SDS011;39181;53.440;5.644;2022-12-10T16:20:23;40.33;;;15.50;;
53293;SDS011;39181;53.440;5.644;2022-12-10T16:22:51;33.88;;;12.73;;
53293;SDS011;39181;53.440;5.644;2022-12-10T16:25:17;37.03;;;15.45;;
53293;SDS011;39181;53.440;5.644;2022-12-10T16:27:43;39.42;;;16.25;;
53293;SDS011;39181;53.440;5.644;2022-12-10T16:30:13;53.80;;;16.48;;
53293;SDS011;39181;53.440;5.644;2022-12-10T16:32:41;38.70;;;15.05;;
53293;SDS011;39181;53.440;5.644;2022-12-10T16:35:07;51.13;;;18.60;;
53293;SDS011;39181;53.440;5.644;2022-12-10T16:37:32;50.85;;;17.77;;